Airfield :
LOGIN :

Register | Disclaimer

   EN    FR    IT 

 










Legend :    VFR   Marginal VFR   IFR   Intensive IFR   Very Intensive IFR
Visi :
Ceiling :
>= 8 km
>= 3000ft
5 to 8 km
1000 to 3000 ft
1500m to 5 km
500 to 1000 ft
800 to 1500m
200 to 500 ft
< 800m
< 200 ft
Symbols :   Thunderstorms  Fog  Heavy snow  Heavy precipitations  Wind > 20 kt
SIGMETs :     Misc.  Thunderstorms  Icing  Turbulence  Mountain Waves  Volcanic Ashes






- Airport Elevation : 97 ft
- IATA code : EBJ


EKEB - Esbjerg

CURRENT METAR :
  • 280720Z AUTO 10014KT 9999 -RA BKN047/// 07/05 Q1010

EXPIRED METARs :
  • 280650Z AUTO 10012KT 9999 -RA BKN065/// 07/05 Q1010
  • 280550Z AUTO 10012KT 9999 BKN043/// 06/05 Q1010
  • 280520Z AUTO 10011KT 070V140 9999 BKN041/// 06/05 Q1011
  • 280450Z AUTO 10011KT 9999 DZ OVC021/// 06/05 Q1011

TAF TAF EKEB
Valid from the 28 at 06:00 until the 28 at 15:00 UTC


280510Z 2806/2815 12012KT 9999 -RADZ BKN020
TEMPO 2806/2807 12015G26KT RADZ BKN012
BECMG 2807/2809 BKN012
TEMPO 2809/2815 RADZ BKN008



MET'MAP, your aeronautical weather chart ! - Copyright ORBIFLY December 2007 - Disclaimer

ORBIFLY MET'MAP TEAM :

Programming & Development : Alexandra Zaïnal
Original concept : Baudouin d'Aumeries
Technical & hardware support : Manuel Goepfert
Assistance : Marc-Olivier Méhu




SOURCES & CREDITS :

   NOAA